Armstrong, Canada
Current Conditions -  °F | °C
As of 4:00 AM on Friday 21 Nov 2014 (Local Time) from CYLW Reporting Station
Scattered Clouds Scattered Clouds  
Wind Chill: 32°   Ceiling: Unl
Heat Index: 37°   Visibility: 9mi
Dew Point: 27°   Wind: 7mph
Humidity: 65%   Direction: 150°SSE
Pressure: 29.9"   Gusts: NA
Location:  50.45°N, 119.2°W
Report Text: CYLW 211200Z AUTO 15006KT 110V200 9SM FEW032 SCT085 03/M03 A2990 RMK SLP140
Loading
Personal Weather Stations






























Interactive Weather Map New forecast layout! Learn more

10-Day Weather Forecast

Advertisements
Track Severe Weather on mobile